createdAt,value
2023-03-25T00:01:17.600Z,1.27
2023-03-25T00:03:50.868Z,1.15
2023-03-25T00:06:18.523Z,1.00
2023-03-25T00:08:46.079Z,1.10
2023-03-25T00:11:13.491Z,1.20
2023-03-25T00:13:42.189Z,1.00
2023-03-25T00:16:10.500Z,0.88
2023-03-25T00:18:38.131Z,1.15
2023-03-25T00:21:11.870Z,1.23
2023-03-25T00:23:41.445Z,1.05
2023-03-25T00:26:09.394Z,1.20
2023-03-25T00:28:38.663Z,1.23
2023-03-25T00:31:12.371Z,1.50
2023-03-25T00:33:41.874Z,1.35
2023-03-25T00:36:13.459Z,1.70
2023-03-25T00:38:43.466Z,1.27
2023-03-25T00:41:17.729Z,1.55
2023-03-25T00:43:46.096Z,1.55
2023-03-25T00:46:14.029Z,1.42
2023-03-25T00:48:42.107Z,1.52
2023-03-25T00:51:10.404Z,1.52
2023-03-25T00:53:38.329Z,1.63
2023-03-25T00:56:08.018Z,1.70
2023-03-25T00:58:35.369Z,1.90
2023-03-25T01:01:14.225Z,1.67
2023-03-25T01:03:44.145Z,1.77
2023-03-25T01:06:17.131Z,1.60
2023-03-25T01:08:44.997Z,1.95
2023-03-25T01:11:22.779Z,2.00
2023-03-25T01:13:51.561Z,2.05
2023-03-25T01:16:18.982Z,1.90
2023-03-25T01:18:46.360Z,1.60
2023-03-25T01:21:13.906Z,2.42
2023-03-25T01:23:41.677Z,2.13
2023-03-25T01:26:09.349Z,1.80
2023-03-25T01:28:37.100Z,2.30
2023-03-25T01:31:08.340Z,2.20
2023-03-25T01:33:36.153Z,2.28
2023-03-25T01:36:04.670Z,2.45
2023-03-25T01:38:32.308Z,2.40
2023-03-25T01:40:59.512Z,2.50
2023-03-25T01:43:26.920Z,2.17
2023-03-25T01:45:54.338Z,2.30
2023-03-25T01:48:44.447Z,2.20
2023-03-25T01:51:24.426Z,2.45
2023-03-25T01:53:55.175Z,2.45
2023-03-25T01:56:32.006Z,2.90
2023-03-25T01:59:05.014Z,2.15
2023-03-25T02:01:32.799Z,2.40
2023-03-25T02:04:09.907Z,2.33
2023-03-25T02:06:52.964Z,3.22
2023-03-25T02:09:25.433Z,2.70
2023-03-25T02:11:54.909Z,2.50
2023-03-25T02:14:28.684Z,2.50
2023-03-25T02:17:33.494Z,2.10
2023-03-25T02:20:38.233Z,2.83
2023-03-25T02:24:03.108Z,2.38
2023-03-25T02:27:14.247Z,2.53
2023-03-25T02:30:07.867Z,2.20
2023-03-25T02:32:47.304Z,2.50
2023-03-25T02:35:26.597Z,2.58
2023-03-25T02:38:12.046Z,2.45
2023-03-25T02:41:20.089Z,2.80
2023-03-25T02:44:16.041Z,2.78
2023-03-25T02:46:54.318Z,2.35
2023-03-25T02:49:33.760Z,2.22
2023-03-25T02:52:22.211Z,2.20
2023-03-25T02:54:53.142Z,2.47
2023-03-25T02:57:22.903Z,1.65
2023-03-25T02:59:54.164Z,2.10
2023-03-25T03:02:25.814Z,1.50
2023-03-25T03:04:56.887Z,2.08
2023-03-25T03:07:33.269Z,1.88
2023-03-25T03:10:47.809Z,1.83
2023-03-25T03:13:38.298Z,2.25
2023-03-25T03:16:31.134Z,2.10
2023-03-25T03:19:38.337Z,2.17
2023-03-25T03:22:41.518Z,1.90
2023-03-25T03:25:23.135Z,1.77
2023-03-25T03:28:16.481Z,1.50
2023-03-25T03:31:15.645Z,1.88
2023-03-25T03:34:19.301Z,1.70
2023-03-25T03:36:51.453Z,1.98
2023-03-25T03:39:28.747Z,1.27
2023-03-25T03:42:03.206Z,1.80
2023-03-25T03:44:36.094Z,1.90
2023-03-25T03:47:18.387Z,1.92
2023-03-25T03:49:53.152Z,1.90
2023-03-25T03:52:33.496Z,1.65
2023-03-25T03:55:14.114Z,2.35
2023-03-25T03:57:49.786Z,1.65
2023-03-25T04:00:25.877Z,1.52
2023-03-25T04:03:10.547Z,1.45
2023-03-25T04:05:39.682Z,1.45
2023-03-25T04:08:28.821Z,1.80
2023-03-25T04:11:04.766Z,1.40
2023-03-25T04:13:38.114Z,1.42
2023-03-25T04:16:07.523Z,1.60
2023-03-25T04:18:34.813Z,1.20
2023-03-25T04:21:02.286Z,1.38
2023-03-25T04:23:34.204Z,1.17
2023-03-25T04:26:03.026Z,1.35
2023-03-25T04:28:31.859Z,1.30
2023-03-25T04:31:00.789Z,1.35
2023-03-25T04:33:32.285Z,1.52
2023-03-25T04:36:01.985Z,1.40
2023-03-25T04:38:29.754Z,0.90
2023-03-25T04:40:58.313Z,1.23
2023-03-25T04:43:25.677Z,1.42
2023-03-25T04:45:58.286Z,1.38
2023-03-25T04:48:32.261Z,1.35
2023-03-25T04:51:01.890Z,1.10
2023-03-25T04:53:30.346Z,1.10
2023-03-25T04:55:58.744Z,1.85
2023-03-25T04:58:27.052Z,1.20
2023-03-25T05:00:54.492Z,1.35
2023-03-25T05:03:24.483Z,1.50
2023-03-25T05:05:53.599Z,1.88
2023-03-25T05:08:23.917Z,1.77
2023-03-25T05:10:51.439Z,1.15
2023-03-25T05:13:18.780Z,1.52
2023-03-25T05:15:46.027Z,1.48
2023-03-25T05:18:16.213Z,1.25
2023-03-25T05:20:47.046Z,2.00
2023-03-25T05:23:18.244Z,1.75
2023-03-25T05:25:51.012Z,1.65
2023-03-25T05:28:19.656Z,1.35
2023-03-25T05:30:48.106Z,1.98
2023-03-25T05:33:17.721Z,1.20
2023-03-25T05:35:45.715Z,1.33
2023-03-25T05:38:18.965Z,2.17
2023-03-25T05:40:47.918Z,1.30
2023-03-25T05:43:16.248Z,1.15
2023-03-25T05:45:45.129Z,1.60
2023-03-25T05:48:12.486Z,1.50
2023-03-25T05:50:42.991Z,1.30
2023-03-25T05:53:18.267Z,1.35
2023-03-25T05:55:47.551Z,1.33
2023-03-25T05:58:14.876Z,1.30
2023-03-25T06:00:42.484Z,2.08
2023-03-25T06:03:10.293Z,0.95
2023-03-25T06:05:40.090Z,1.38
2023-03-25T06:08:07.388Z,1.10
2023-03-25T06:10:34.656Z,1.30
2023-03-25T06:13:01.814Z,1.33
2023-03-25T06:15:33.438Z,1.20
2023-03-25T06:18:01.288Z,1.40
2023-03-25T06:20:28.944Z,1.67
2023-03-25T06:22:56.638Z,1.38
2023-03-25T06:25:24.373Z,1.70
2023-03-25T06:27:51.689Z,1.85
2023-03-25T06:30:21.826Z,1.48
2023-03-25T06:32:50.834Z,2.03
2023-03-25T06:35:20.701Z,1.30
2023-03-25T06:37:49.795Z,1.40
2023-03-25T06:40:32.402Z,1.42
2023-03-25T06:43:02.488Z,1.70
2023-03-25T06:45:52.852Z,1.30
2023-03-25T06:48:29.304Z,1.20
2023-03-25T06:50:56.716Z,1.40
2023-03-25T06:53:24.210Z,1.30
2023-03-25T06:55:51.848Z,1.40
2023-03-25T06:58:19.290Z,1.50
2023-03-25T07:00:47.049Z,1.42
2023-03-25T07:03:14.328Z,2.33
2023-03-25T07:05:43.537Z,1.50
2023-03-25T07:08:10.787Z,2.50
2023-03-25T07:10:38.114Z,3.47
2023-03-25T07:13:05.469Z,1.90
2023-03-25T07:15:32.733Z,1.63
2023-03-25T07:17:59.891Z,2.42
2023-03-25T07:20:27.154Z,1.80
2023-03-25T07:22:56.047Z,1.80
2023-03-25T07:25:23.426Z,1.52
2023-03-25T07:27:50.875Z,1.90
2023-03-25T07:30:19.855Z,2.15
2023-03-25T07:32:47.279Z,1.50
2023-03-25T07:35:14.651Z,1.95
2023-03-25T07:37:41.882Z,1.55
2023-03-25T07:40:09.856Z,2.63
2023-03-25T07:42:38.608Z,1.50
2023-03-25T07:45:22.575Z,1.58
2023-03-25T07:47:53.358Z,1.33
2023-03-25T07:50:25.455Z,1.52
2023-03-25T07:52:54.785Z,1.63
2023-03-25T07:55:22.297Z,1.20
2023-03-25T07:57:49.587Z,1.30
2023-03-25T08:00:16.983Z,1.33
2023-03-25T08:02:44.314Z,1.02
2023-03-25T08:05:12.551Z,1.30
2023-03-25T08:07:39.810Z,1.52
2023-03-25T08:10:08.147Z,1.33
2023-03-25T08:12:36.826Z,2.13
2023-03-25T08:15:04.598Z,1.30
2023-03-25T08:17:31.919Z,1.63
2023-03-25T08:20:00.792Z,1.33
2023-03-25T08:22:28.329Z,1.30
2023-03-25T08:24:56.101Z,1.23
2023-03-25T08:27:23.846Z,1.27
2023-03-25T08:29:57.557Z,1.05
2023-03-25T08:32:27.260Z,0.90
2023-03-25T08:34:55.355Z,1.38
2023-03-25T08:37:23.998Z,1.23
2023-03-25T08:39:51.590Z,1.20
2023-03-25T08:42:19.158Z,1.13
2023-03-25T08:44:46.717Z,1.20
2023-03-25T08:47:14.136Z,1.40
2023-03-25T08:49:41.590Z,1.13
2023-03-25T08:52:10.388Z,1.30
2023-03-25T08:54:37.863Z,1.15
2023-03-25T08:57:06.101Z,1.33
2023-03-25T08:59:33.433Z,0.80
2023-03-25T09:02:01.544Z,1.25
2023-03-25T09:04:29.446Z,1.13
2023-03-25T09:07:11.747Z,1.10
2023-03-25T09:09:41.054Z,2.10
2023-03-25T09:12:08.955Z,1.90
2023-03-25T09:14:37.031Z,5.45
2023-03-25T09:17:06.477Z,1.05
2023-03-25T09:19:38.218Z,4.95
2023-03-25T09:22:06.778Z,1.20
2023-03-25T09:24:35.863Z,1.10
2023-03-25T09:27:03.799Z,1.80
2023-03-25T09:29:31.369Z,1.92
2023-03-25T09:31:59.846Z,1.50
2023-03-25T09:34:28.094Z,1.33
2023-03-25T09:36:56.184Z,1.20
2023-03-25T09:39:23.569Z,1.50
2023-03-25T09:42:23.254Z,1.50
2023-03-25T09:45:07.147Z,1.60
2023-03-25T09:47:42.362Z,1.60
2023-03-25T09:50:15.149Z,2.78
2023-03-25T09:53:07.395Z,1.35
2023-03-25T09:55:41.261Z,4.20
2023-03-25T09:58:36.681Z,1.40
2023-03-25T10:01:27.753Z,1.52
2023-03-25T10:04:08.468Z,1.45
2023-03-25T10:06:58.711Z,1.25
2023-03-25T10:10:00.758Z,1.13
2023-03-25T10:13:04.219Z,1.00
2023-03-25T10:15:36.703Z,1.50
2023-03-25T10:18:34.521Z,2.03
2023-03-25T10:21:11.796Z,1.15
2023-03-25T10:24:25.829Z,1.13
2023-03-25T10:27:01.962Z,1.50
2023-03-25T10:30:00.761Z,2.20
2023-03-25T10:33:02.820Z,2.33
2023-03-25T10:35:34.096Z,2.42
2023-03-25T10:38:32.340Z,2.15
2023-03-25T10:41:31.133Z,10.77
2023-03-25T10:43:58.380Z,8.43
2023-03-25T10:46:48.714Z,1.02
2023-03-25T10:51:57.598Z,3.53
2023-03-25T10:54:31.880Z,3.78
2023-03-25T10:57:26.906Z,0.70
2023-03-25T11:00:18.873Z,0.60
2023-03-25T11:02:47.821Z,0.90
2023-03-25T11:05:20.834Z,1.48
2023-03-25T11:08:08.741Z,1.55
2023-03-25T11:10:39.142Z,0.77
2023-03-25T11:13:13.288Z,1.55
2023-03-25T11:15:42.083Z,0.50
2023-03-25T11:18:34.566Z,0.45
2023-03-25T11:21:12.478Z,0.63
2023-03-25T11:23:52.137Z,1.08
2023-03-25T11:26:30.264Z,3.20
2023-03-25T11:29:06.278Z,1.80
2023-03-25T11:31:38.035Z,0.68
2023-03-25T11:34:21.371Z,0.80
2023-03-25T11:36:55.415Z,0.68
2023-03-25T11:39:39.881Z,0.60
2023-03-25T11:42:22.316Z,0.75
2023-03-25T11:44:55.483Z,1.30
2023-03-25T11:47:39.062Z,0.88
2023-03-25T11:50:07.814Z,0.98
2023-03-25T11:52:46.782Z,0.80
2023-03-25T11:55:30.623Z,0.90
2023-03-25T11:58:02.187Z,1.42
2023-03-25T12:00:51.318Z,0.90
2023-03-25T12:03:23.220Z,0.90
2023-03-25T12:06:14.648Z,0.82
2023-03-25T12:09:07.484Z,1.30
2023-03-25T12:12:14.493Z,1.17
2023-03-25T12:15:24.097Z,0.90
2023-03-25T12:18:14.822Z,1.03
2023-03-25T12:21:20.930Z,1.25
2023-03-25T12:24:17.455Z,1.17
2023-03-25T12:27:25.230Z,1.08
2023-03-25T12:30:17.057Z,0.90
2023-03-25T12:33:02.255Z,1.15
2023-03-25T12:35:41.591Z,0.73
2023-03-25T12:38:26.084Z,0.70
2023-03-25T12:41:23.340Z,0.40
2023-03-25T12:44:36.267Z,0.30
2023-03-25T12:47:21.402Z,0.40
2023-03-25T12:50:22.986Z,0.50
2023-03-25T12:53:15.832Z,0.50
2023-03-25T12:56:16.708Z,0.43
2023-03-25T12:59:41.775Z,0.55
2023-03-25T13:02:38.817Z,0.55
2023-03-25T13:05:35.430Z,0.38
2023-03-25T13:08:18.829Z,0.50
2023-03-25T13:10:56.369Z,0.43
2023-03-25T13:13:27.119Z,0.35
2023-03-25T13:16:10.452Z,0.43
2023-03-25T13:18:47.533Z,0.40
2023-03-25T13:21:39.415Z,0.30
2023-03-25T13:24:16.215Z,0.40
2023-03-25T13:26:46.615Z,0.50
2023-03-25T13:29:34.460Z,0.50
2023-03-25T13:32:10.028Z,0.32
2023-03-25T13:34:56.921Z,0.85
2023-03-25T13:37:34.955Z,0.52
2023-03-25T13:40:14.289Z,0.60
2023-03-25T13:43:08.060Z,0.47
2023-03-25T13:46:07.426Z,0.63
2023-03-25T13:49:33.682Z,0.52
2023-03-25T13:52:01.906Z,0.50
2023-03-25T13:54:58.739Z,0.88
2023-03-25T13:57:50.587Z,0.98
2023-03-25T14:00:46.518Z,1.00
2023-03-25T14:03:54.857Z,1.05
2023-03-25T14:07:02.298Z,0.80
2023-03-25T14:10:10.658Z,0.82
2023-03-25T14:12:50.240Z,0.70
2023-03-25T14:15:31.967Z,0.85
2023-03-25T14:18:01.607Z,0.82
2023-03-25T14:20:41.732Z,0.60
2023-03-25T14:23:18.469Z,0.80
2023-03-25T14:25:59.045Z,0.35
2023-03-25T14:28:43.949Z,0.93
2023-03-25T14:31:14.343Z,1.10
2023-03-25T14:34:00.772Z,1.95
2023-03-25T14:36:40.216Z,0.95
2023-03-25T14:39:33.037Z,0.88
2023-03-25T14:42:13.372Z,0.63
2023-03-25T14:44:49.927Z,0.95
2023-03-25T14:47:20.433Z,0.55
2023-03-25T14:52:52.072Z,1.10
2023-03-25T14:55:47.256Z,0.60
2023-03-25T14:58:29.532Z,0.65
2023-03-25T15:01:14.826Z,0.98
2023-03-25T15:03:44.655Z,0.70
2023-03-25T15:06:34.149Z,0.60
2023-03-25T15:09:09.773Z,0.60
2023-03-25T15:11:40.558Z,0.40
2023-03-25T15:14:22.574Z,0.40
2023-03-25T15:16:49.956Z,0.47
2023-03-25T15:19:21.578Z,0.38
2023-03-25T15:21:57.850Z,0.55
2023-03-25T15:24:34.440Z,0.75
2023-03-25T15:27:32.405Z,0.70
2023-03-25T15:30:27.316Z,0.80
2023-03-25T15:33:49.642Z,0.60
2023-03-25T15:36:50.583Z,0.50
2023-03-25T15:39:58.441Z,0.85
2023-03-25T15:42:54.541Z,0.80
2023-03-25T15:45:58.721Z,1.00
2023-03-25T15:49:02.440Z,0.90
2023-03-25T15:52:10.913Z,0.70
2023-03-25T15:54:49.946Z,0.70
2023-03-25T15:57:57.088Z,0.60
2023-03-25T16:00:42.445Z,0.95
2023-03-25T16:03:19.807Z,0.88
2023-03-25T16:06:00.833Z,0.82
2023-03-25T16:08:44.782Z,0.68
2023-03-25T16:11:31.466Z,0.50
2023-03-25T16:14:17.447Z,0.75
2023-03-25T16:16:55.935Z,0.80
2023-03-25T16:19:52.581Z,0.80
2023-03-25T16:22:37.495Z,0.90
2023-03-25T16:25:14.766Z,1.20
2023-03-25T16:27:51.014Z,1.63
2023-03-25T16:30:29.147Z,1.80
2023-03-25T16:33:26.792Z,2.33
2023-03-25T16:36:04.853Z,0.88
2023-03-25T16:38:33.022Z,1.15
2023-03-25T16:41:11.038Z,1.80
2023-03-25T16:43:38.597Z,1.27
2023-03-25T16:46:09.437Z,1.15
2023-03-25T16:48:51.190Z,1.25
2023-03-25T16:51:36.069Z,0.80
2023-03-25T16:54:10.867Z,1.75
2023-03-25T16:56:39.282Z,1.85
2023-03-25T16:59:27.073Z,1.20
2023-03-25T17:01:58.755Z,1.50
2023-03-25T17:04:44.075Z,2.00
2023-03-25T17:07:22.650Z,1.38
2023-03-25T17:09:52.926Z,1.55
2023-03-25T17:12:23.629Z,1.55
2023-03-25T17:14:58.503Z,1.98
2023-03-25T17:17:37.785Z,3.70
2023-03-25T17:20:16.073Z,4.28
2023-03-25T17:23:18.080Z,2.63
2023-03-25T17:25:58.176Z,2.38
2023-03-25T17:28:58.523Z,2.00
2023-03-25T17:31:36.605Z,1.70
2023-03-25T17:34:13.849Z,1.65
2023-03-25T17:36:51.072Z,2.35
2023-03-25T17:39:29.250Z,3.45
2023-03-25T17:42:04.396Z,4.28
2023-03-25T17:44:41.376Z,3.30
2023-03-25T17:47:15.919Z,2.88
2023-03-25T17:49:43.523Z,2.15
2023-03-25T17:52:11.347Z,2.00
2023-03-25T17:54:39.103Z,1.67
2023-03-25T17:57:19.607Z,0.90
2023-03-25T17:59:47.864Z,1.05
2023-03-25T18:02:17.287Z,1.55
2023-03-25T18:04:44.922Z,1.30
2023-03-25T18:07:12.253Z,1.50
2023-03-25T18:09:41.328Z,1.25
2023-03-25T18:12:08.811Z,1.85
2023-03-25T18:14:36.155Z,1.13
2023-03-25T18:17:04.599Z,1.25
2023-03-25T18:19:33.527Z,1.10
2023-03-25T18:22:09.780Z,1.02
2023-03-25T18:24:41.523Z,1.30
2023-03-25T18:27:14.353Z,1.10
2023-03-25T18:29:41.834Z,0.90
2023-03-25T18:32:09.339Z,1.00
2023-03-25T18:34:36.451Z,1.00
2023-03-25T18:37:04.003Z,1.10
2023-03-25T18:39:32.352Z,1.20
2023-03-25T18:42:00.641Z,1.05
2023-03-25T18:44:30.804Z,1.13
2023-03-25T18:46:58.323Z,0.90
2023-03-25T18:49:27.512Z,0.60
2023-03-25T18:51:54.926Z,0.77
2023-03-25T18:54:22.243Z,0.63
2023-03-25T18:56:49.806Z,0.98
2023-03-25T18:59:21.965Z,0.50
2023-03-25T19:01:49.407Z,0.77
2023-03-25T19:04:18.269Z,0.70
2023-03-25T19:06:45.650Z,1.05
2023-03-25T19:09:18.801Z,1.00
2023-03-25T19:11:47.265Z,0.55
2023-03-25T19:14:14.500Z,0.50
2023-03-25T19:16:44.327Z,0.70
2023-03-25T19:19:15.559Z,0.60
2023-03-25T19:21:42.904Z,0.70
2023-03-25T19:24:10.100Z,0.47
2023-03-25T19:26:39.446Z,0.85
2023-03-25T19:29:07.058Z,0.70
2023-03-25T19:31:34.735Z,0.45
2023-03-25T19:34:02.307Z,0.85
2023-03-25T19:36:34.720Z,0.70
2023-03-25T19:39:05.997Z,0.90
2023-03-25T19:41:34.864Z,0.60
2023-03-25T19:44:02.299Z,0.77
2023-03-25T19:46:31.789Z,0.60
2023-03-25T19:48:59.255Z,0.68
2023-03-25T19:51:26.842Z,1.00
2023-03-25T19:53:54.993Z,0.65
2023-03-25T19:56:22.567Z,1.38
2023-03-25T19:58:49.799Z,1.10
2023-03-25T20:01:18.167Z,1.05
2023-03-25T20:03:45.855Z,0.90
2023-03-25T20:06:14.124Z,1.25
2023-03-25T20:08:41.452Z,1.15
2023-03-25T20:11:12.172Z,0.70
2023-03-25T20:13:39.674Z,1.20
2023-03-25T20:16:08.687Z,0.80
2023-03-25T20:18:36.078Z,1.00
2023-03-25T20:21:09.659Z,0.80
2023-03-25T20:23:36.954Z,1.08
2023-03-25T20:26:04.965Z,0.80
2023-03-25T20:28:32.538Z,0.70
2023-03-25T20:30:59.932Z,0.85
2023-03-25T20:33:28.096Z,1.10
2023-03-25T20:35:55.813Z,1.10
2023-03-25T20:38:23.424Z,0.70
2023-03-25T20:40:54.665Z,0.77
2023-03-25T20:43:22.108Z,0.57
2023-03-25T20:45:53.869Z,1.10
2023-03-25T20:48:22.186Z,0.90
2023-03-25T20:50:49.724Z,0.50
2023-03-25T20:53:17.053Z,0.70
2023-03-25T20:55:44.750Z,0.50
2023-03-25T20:58:12.828Z,0.63
2023-03-25T21:00:40.092Z,0.75
2023-03-25T21:03:07.630Z,0.75
2023-03-25T21:05:34.891Z,0.70
2023-03-25T21:08:02.197Z,0.90
2023-03-25T21:10:29.480Z,0.50
2023-03-25T21:12:56.830Z,0.70
2023-03-25T21:15:24.108Z,0.80
2023-03-25T21:17:51.352Z,0.75
2023-03-25T21:20:21.966Z,0.75
2023-03-25T21:22:50.958Z,0.82
2023-03-25T21:25:18.352Z,0.40
2023-03-25T21:27:46.759Z,0.47
2023-03-25T21:30:15.499Z,0.75
2023-03-25T21:32:43.429Z,0.60
2023-03-25T21:35:11.397Z,1.20
2023-03-25T21:37:39.988Z,0.68
2023-03-25T21:40:10.916Z,0.70
2023-03-25T21:42:43.145Z,0.50
2023-03-25T21:45:13.922Z,0.45
2023-03-25T21:50:12.629Z,0.20
2023-03-25T21:52:47.128Z,0.30
2023-03-25T21:55:16.580Z,0.32
2023-03-25T21:57:45.024Z,0.50
2023-03-25T22:00:17.329Z,0.50
2023-03-25T22:02:46.635Z,0.43
2023-03-25T22:05:16.954Z,0.68
2023-03-25T22:07:44.667Z,0.50
2023-03-25T22:10:12.285Z,0.47
2023-03-25T22:12:39.723Z,0.40
2023-03-25T22:15:08.263Z,0.50
2023-03-25T22:17:35.642Z,0.50
2023-03-25T22:20:05.405Z,0.40
2023-03-25T22:22:33.037Z,0.47
2023-03-25T22:25:00.525Z,0.35
2023-03-25T22:27:27.697Z,0.60
2023-03-25T22:29:55.162Z,0.80
2023-03-25T22:32:24.358Z,0.90
2023-03-25T22:34:51.772Z,0.50
2023-03-25T22:37:19.200Z,0.45
2023-03-25T22:39:46.609Z,0.35
2023-03-25T22:42:13.728Z,0.40
2023-03-25T22:44:41.011Z,0.50
2023-03-25T22:47:08.273Z,0.50
2023-03-25T22:49:36.097Z,0.50
2023-03-25T22:52:04.559Z,0.60
2023-03-25T22:54:32.054Z,0.50
2023-03-25T22:56:59.359Z,0.50
2023-03-25T22:59:26.741Z,0.90
2023-03-25T23:01:54.472Z,0.38
2023-03-25T23:04:21.865Z,0.43
2023-03-25T23:07:00.565Z,0.50
2023-03-25T23:09:44.926Z,0.75
2023-03-25T23:12:17.064Z,0.82
2023-03-25T23:14:51.040Z,0.50
2023-03-25T23:17:18.423Z,0.73
2023-03-25T23:19:46.135Z,0.75
2023-03-25T23:22:14.464Z,0.82
2023-03-25T23:24:42.250Z,0.70
2023-03-25T23:27:12.221Z,0.55
2023-03-25T23:29:41.758Z,0.45
2023-03-25T23:32:09.832Z,0.67
2023-03-25T23:34:40.255Z,0.47
2023-03-25T23:37:09.322Z,0.60
2023-03-25T23:39:37.172Z,0.50
2023-03-25T23:42:04.490Z,0.40
2023-03-25T23:44:32.334Z,1.10
2023-03-25T23:46:59.752Z,0.65
2023-03-25T23:49:33.082Z,0.65
2023-03-25T23:52:01.393Z,0.65
2023-03-25T23:54:28.751Z,0.55
2023-03-25T23:56:56.133Z,0.50
2023-03-25T23:59:23.463Z,0.95
